METAR Data
IDs: Format: Raw Decoded Include TAF

Data at: 2235 UTC 25 Oct 2021

KGYB 252215Z AUTO 19004KT 10SM CLR 29/23 A2993 RMK AO2 T02850230
KGYB 252155Z AUTO 20004KT 10SM SCT024 29/23 A2993 RMK AO2 T02880230
KGYB 252135Z AUTO 23004KT 10SM SCT022 28/23 A2993 RMK AO2 T02810230
KGYB 252115Z AUTO 20004KT 10SM BKN022 28/23 A2993 RMK AO2 T02830230
KGYB 252055Z AUTO 00000KT 10SM BKN022 28/23 A2994 RMK AO2 T02800230
KGYB 252035Z AUTO 20005KT 10SM BKN020 28/23 A2994 RMK AO2 T02840231
KGYB 252015Z AUTO 22003KT 10SM OVC018 28/23 A2994 RMK AO2 T02770231
KGYB 251955Z AUTO 21005KT 10SM OVC016 28/23 A2995 RMK AO2 T02760231
KGYB 251935Z AUTO 20003KT 10SM BKN016 27/23 A2996 RMK AO2 T02700229
KGYB 251915Z AUTO 00000KT 10SM OVC014 27/23 A2996 RMK AO2 T02730229
KGYB 251855Z AUTO 00000KT 10SM OVC014 26/23 A2997 RMK AO2 T02630227
KGYB 251835Z AUTO 23004KT 10SM OVC014 26/23 A2998 RMK AO2 T02640228
KGYB 251815Z AUTO 00000KT 10SM OVC012 26/23 A2999 RMK AO2 T02630228
KGYB 251755Z AUTO 19005KT 10SM OVC012 26/23 A3000 RMK AO2 T02600228 10260 20230
KGYB 251735Z AUTO 23003KT 10SM OVC012 26/23 A3000 RMK AO2 T02560226
KGYB 251715Z AUTO 22004KT 10SM OVC010 26/23 A3000 RMK AO2 T02560226
KGYB 251655Z AUTO 16003KT 10SM OVC010 25/23 A3000 RMK AO2 T02540225
KGYB 251635Z AUTO 00000KT 10SM OVC010 25/23 A3000 RMK AO2 T02510225
KGYB 251615Z AUTO 00000KT 10SM OVC008 25/22 A2999 RMK AO2 T02460224
KGYB 251555Z AUTO 00000KT 10SM OVC008 24/22 A3000 RMK AO2 T02430222
KGYB 251535Z AUTO 00000KT 10SM OVC008 24/22 A3000 RMK AO2 T02410222
KGYB 251515Z AUTO 00000KT 10SM OVC008 24/22 A3000 RMK AO2 T02390222
KGYB 251455Z AUTO 24003KT 10SM OVC008 24/22 A3000 RMK AO2 T02360222
KGYB 251435Z AUTO 00000KT 10SM OVC008 24/22 A3000 RMK AO2 T02360221
KGYB 251415Z AUTO 22004KT 10SM OVC008 24/22 A2999 RMK AO2 T02350220
KGYB 251355Z AUTO 23003KT 10SM OVC008 23/22 A2998 RMK AO2 T02330220
KGYB 251335Z AUTO 00000KT 10SM OVC008 23/22 A2998 RMK AO2 T02320220
KGYB 251315Z AUTO 00000KT 10SM OVC008 23/22 A2997 RMK AO2 T02310220
KGYB 251255Z AUTO 25005KT 10SM OVC008 23/22 A2996 RMK AO2 T02300220
KGYB 251235Z AUTO 00000KT 10SM OVC008 23/22 A2995 RMK AO2 T02310220
KGYB 251215Z AUTO 00000KT 10SM OVC008 23/22 A2995 RMK AO2 T02310220
KGYB 251155Z AUTO 00000KT 10SM OVC008 23/22 A2994 RMK AO2 T02310220 10232 20216
KGYB 251135Z AUTO 22003KT 10SM OVC008 23/22 A2994 RMK AO2 T02310220
KGYB 251115Z AUTO 22003KT 10SM OVC008 23/22 A2993 RMK AO2 T02310221
KGYB 251055Z AUTO 22007KT 10SM OVC006 23/22 A2993 RMK AO2 T02300221
KGYB 251035Z AUTO 22005KT 10SM OVC006 23/22 A2992 RMK AO2 T02300222
KGYB 251015Z AUTO 22006KT 10SM OVC006 23/22 A2992 RMK AO2 T02270222
KGYB 250955Z AUTO 22007KT 190V260 7SM OVC002 23/22 A2992 RMK AO2 T02270223
KGYB 250935Z AUTO 22005KT 5SM BR OVC002 23/22 A2992 RMK AO2 T02260222
KGYB 250920Z AUTO 22006KT 4SM BR OVC002 23/22 A2992 RMK AO2 T02250222
KGYB 250855Z AUTO 21006KT 2SM BR OVC002 23/22 A2992 RMK AO2 T02260223
KGYB 250835Z AUTO 20008KT 1 3/4SM BR OVC002 23/22 A2992 RMK AO2 T02260223
KGYB 250815Z AUTO 19004KT 2SM BR OVC004 22/22 A2992 RMK AO2 VIS 1 1/4V3 T02210218
KGYB 250755Z AUTO 19003KT 2 1/2SM BR BKN004 22/22 A2993 RMK AO2 VIS 1 1/4V4 T02180215
KGYB 250735Z AUTO 19003KT 2 1/2SM BR CLR 22/22 A2992 RMK AO2 T02180215
KGYB 250715Z AUTO 19003KT 5SM BR CLR 22/21 A2992 RMK AO2 T02180214
KGYB 250655Z AUTO 20003KT 2SM BR CLR 22/22 A2991 RMK AO2 T02210216
KGYB 250635Z AUTO 20003KT 4SM BR CLR 22/22 A2991 RMK AO2 T02200215
KGYB 250615Z AUTO 17003KT 4SM BR CLR 22/21 A2991 RMK AO2 T02210214
KGYB 250555Z AUTO 20003KT 2 1/2SM BR CLR 22/22 A2991 RMK AO2 T02240215 10274 20210 402970192
KGYB 250535Z AUTO 21003KT 2 1/2SM BR CLR 23/22 A2991 RMK AO2 VIS 1 3/4V4 T02250215
KGYB 250515Z AUTO 19003KT 3SM BR CLR 23/22 A2991 RMK AO2 T02250215
KGYB 250455Z AUTO 18003KT 5SM BR CLR 22/21 A2991 RMK AO2 T02210211
KGYB 250435Z AUTO 18003KT 1 3/4SM BR VV007 22/21 A2990 RMK AO2 T02230208
KGYB 250415Z AUTO 00000KT 2 1/2SM BR CLR 22/21 A2990 RMK AO2 T02240209
KGYB 250355Z AUTO 00000KT 1 1/2SM BR VV007 23/21 A2990 RMK AO2 T02340208
KGYB 250335Z AUTO 00000KT 5SM BR CLR 23/21 A2989 RMK AO2 T02310208
KGYB 250315Z AUTO 00000KT 10SM CLR 22/20 A2988 RMK AO2 T02160202
KGYB 250255Z AUTO 00000KT 10SM CLR 23/21 A2988 RMK AO2 T02260207
KGYB 250235Z AUTO 00000KT 3SM HZ CLR 23/21 A2987 RMK AO2 T02320206
KGYB 250215Z AUTO 00000KT 7SM SCT050 23/21 A2986 RMK AO2 T02270206
KGYB 250155Z AUTO 00000KT 10SM SCT050 23/21 A2987 RMK AO2 T02260208
KGYB 250135Z AUTO 00000KT 1 1/4SM HZ SCT046 25/21 A2986 RMK AO2 T02450205
KGYB 250115Z AUTO 00000KT 10SM CLR 23/21 A2985 RMK AO2 T02280207
KGYB 250055Z AUTO 00000KT 5SM HZ CLR 24/21 A2984 RMK AO2 T02410207
KGYB 250035Z AUTO 00000KT 10SM CLR 24/21 A2984 RMK AO2 T02400210
KGYB 250015Z AUTO 00000KT 1/2SM HZ VV005 27/21 A2984 RMK AO2 T02670205
KGYB 242355Z AUTO 00000KT 4SM HZ CLR 28/20 A2983 RMK AO2 T02750201 10297 20267
KGYB 242335Z AUTO 21003KT 4SM HZ CLR 29/20 A2982 RMK AO2 T02860200
KGYB 242315Z AUTO 20005KT 7SM CLR 29/20 A2982 RMK AO2 T02910199
KGYB 242255Z AUTO 22004KT 10SM CLR 29/20 A2981 RMK AO2 T02930200
KGYB 242235Z AUTO 19007KT 10SM CLR 30/20 A2981 RMK AO2 T02950200
KGYB 242215Z AUTO 20005KT 10SM CLR 29/20 A2982 RMK AO2 T02940203
KGYB 242155Z AUTO 20007KT 7SM CLR 30/20 A2982 RMK AO2 T02960203
KGYB 242135Z AUTO 19006KT 10SM CLR 29/20 A2982 RMK AO2 T02940203
KGYB 242115Z AUTO 19007KT 10SM CLR 30/20 A2982 RMK AO2 T02950199
KGYB 242055Z AUTO 22009G14KT 10SM CLR 30/20 A2983 RMK AO2 T02960201
KGYB 242035Z AUTO 20007KT 10SM SCT035 SCT050 30/20 A2983 RMK AO2 T02960204
KGYB 242015Z AUTO 18008KT 10SM SCT035 BKN049 BKN055 29/21 A2983 RMK AO2 T02920209
KGYB 241955Z AUTO 22005KT 10SM SCT033 SCT040 29/21 A2984 RMK AO2 T02880207
KGYB 241935Z AUTO 21006KT 10SM SCT031 SCT037 SCT048 29/21 A2985 RMK AO2 T02880212
KGYB 241915Z AUTO 21004KT 10SM SCT029 SCT037 SCT050 28/21 A2985 RMK AO2 T02750209
KGYB 241855Z AUTO 20005KT 10SM SCT029 SCT037 BKN050 28/21 A2986 RMK AO2 T02790212
KGYB 241835Z AUTO 22006KT 10SM SCT035 BKN041 BKN050 28/21 A2988 RMK AO2 T02760211
KGYB 241815Z AUTO 21004KT 10SM SCT027 BKN036 27/21 A2990 RMK AO2 T02690209
KGYB 241755Z AUTO 18004KT 10SM SCT032 27/21 A2989 RMK AO2 T02720205 10274 20204
KGYB 241735Z AUTO 20007KT 150V220 10SM SCT023 SCT028 SCT032 26/21 A2990 RMK AO2 T02630213
KGYB 241715Z AUTO 20007KT 10SM SCT014 SCT021 OVC032 26/22 A2990 RMK AO2 T02600220
KGYB 241655Z AUTO 19006KT 10SM SCT012 SCT018 OVC032 25/22 A2990 RMK AO2 T02510221
KGYB 241635Z AUTO 18006KT 10SM BKN010 BKN018 OVC032 25/23 A2991 RMK AO2 T02530225
KGYB 241615Z AUTO 18005KT 10SM BKN008 OVC016 25/23 A2991 RMK AO2 T02450225
KGYB 241555Z AUTO 00000KT 10SM OVC008 24/22 A2992 RMK AO2 T02380221
KGYB 241535Z AUTO 17005KT 10SM OVC006 24/22 A2991 RMK AO2 T02350220
KGYB 241515Z AUTO 13005KT 10SM BKN006 BKN019 OVC031 23/22 A2991 RMK AO2 T02310219
KGYB 241455Z AUTO 14003KT 10SM SCT006 SCT009 OVC031 23/22 A2990 RMK AO2 T02250215
KGYB 241435Z AUTO 00000KT 7SM -DZ BKN006 BKN018 OVC031 22/21 A2989 RMK AO2 T02200211
KGYB 241415Z AUTO 00000KT 7SM BKN006 BKN013 OVC029 22/21 A2989 RMK AO2 T02160210
KGYB 241355Z AUTO 00000KT 7SM SCT008 BKN013 OVC029 21/21 A2988 RMK AO2 T02130206
KGYB 241335Z AUTO 00000KT 7SM OVC008 21/20 A2987 RMK AO2 T02100204
KGYB 241315Z AUTO 00000KT 7SM BKN008 OVC014 21/20 A2987 RMK AO2 T02080202
KGYB 241255Z AUTO 00000KT 7SM BKN014 OVC021 21/20 A2986 RMK AO2 T02080202
KGYB 241235Z AUTO 00000KT 10SM SCT008 BKN014 OVC020 21/20 A2986 RMK AO2 T02070201
KGYB 241215Z AUTO 00000KT 10SM BKN014 OVC021 21/20 A2985 RMK AO2 T02050200
KGYB 241155Z AUTO 00000KT 10SM SCT012 OVC023 20/20 A2986 RMK AO2 70001 T02030198 10205 20192
KGYB 241135Z AUTO 00000KT 10SM SCT014 OVC023 21/20 A2985 RMK AO2 T02050198
KGYB 241115Z AUTO 15003KT 10SM OVC014 21/20 A2985 RMK AO2 T02050198
KGYB 241055Z AUTO 14004KT 10SM OVC014 20/20 A2985 RMK AO2 T02030197